Blue Image — 3EXO5 — position and weather

sailwx.info

Track history (hours):
 
Tides and Currents Weather Stations Pressure Air Temp Water Temp Dewpoint Dewpoint Depression Visibility Wind Speed Wind Dir Waves Ship Positions

Blue Image

Last reported at 2015-May-03 10:28 UTC. Time now 2015-May-03 11:50 UTC.
Position N 47°18' W 002°08'.

Length 160 m; draft 7.9 m.

Type: Cargo ship. MMSI: 351960000.

Date/timePositionNaut miles runAvg speedWind from/ knotsBaromVisibWave heightAir tempDewpointWater temp
2015-May-03 10:28N 47°18' W 002°08'0 0.0
2015-May-03 09:04N 47°18' W 002°08'0 0.0
2015-May-02 03:07N 47°18' W 002°08'  
2015-Apr-29 14:15N 39°20' W 009°51'912.7
2015-Apr-29 13:33N 39°12' W 009°51'1212.4
2015-Apr-29 12:33N 38°59' W 009°52'1212.5
2015-Apr-29 11:33N 38°47' W 009°52'1212.5
2015-Apr-29 10:33N 38°35' W 009°49'1212.2
2015-Apr-29 09:33N 38°22' W 009°46'2512.1
2015-Apr-29 07:27N 37°58' W 009°39'1112.1
2015-Apr-29 06:33N 37°47' W 009°36'1212.2
2015-Apr-29 05:33N 37°35' W 009°32'7610.8
2015-Apr-28 22:33N 36°35' W 008°34'15211.7
2015-Apr-28 09:33N 35°59' W 005°31'10 9.7
2015-Apr-28 08:34N 36°01' W 005°19'9 9.0
2015-Apr-28 07:31N 36°03' W 005°08'12011.6
2015-Apr-27 21:14N 36°17' W 002°41'911.2
2015-Apr-27 20:24N 36°17' W 002°29'1211.0
2015-Apr-27 19:20N 36°18' W 002°15'34810.5
2015-Apr-26 10:14N 37°22' E 004°53'5012.1
2015-Apr-26 06:06N 37°28' E 005°56'10712.5
2015-Apr-25 21:33N 37°40' E 008°10'1313.2
2015-Apr-25 20:33N 37°42' E 008°26'1313.1
2015-Apr-25 19:32N 37°43' E 008°43'1512.5
2015-Apr-25 18:20N 37°44' E 009°02'912.1
2015-Apr-25 17:34N 37°43' E 009°14'1212.3
2015-Apr-25 16:33N 37°42' E 009°29'1312.8
2015-Apr-25 15:32N 37°41' E 009°46'1312.6
2015-Apr-25 14:32N 37°39' E 010°01'9712.2
2015-Apr-25 06:33N 37°08' E 011°57'1212.2
2015-Apr-25 05:33N 37°04' E 012°12'5012.5
2015-Apr-25 01:33N 36°50' E 013°11'2512.4
2015-Apr-24 23:30N 36°41' E 013°41'1212.2
2015-Apr-24 22:32N 36°38' E 013°55'1212.7
2015-Apr-24 21:33N 36°34' E 014°10'1312.9
2015-Apr-24 20:33N 36°30' E 014°25'1312.5
2015-Apr-24 19:33N 36°28' E 014°41'142 8.6
2015-Apr-24 03:10N 37°26' E 017°22'812.7
2015-Apr-24 02:33N 37°24' E 017°31'  
Track history (hours):
 
Tides and Currents Weather Stations Pressure Air Temp Water Temp Dewpoint Dewpoint Depression Visibility Wind Speed Wind Dir Waves Ship Positions

Blue Image

Last reported at 2015-May-03 10:28 UTC. Time now 2015-May-03 11:50 UTC.
Position N 47°18' W 002°08'.

Length 160 m; draft 7.9 m.

Type: Cargo ship. MMSI: 351960000.

Date/timePositionNaut miles runAvg speedWind from/ knotsBaromVisibWave heightAir tempDewpointWater temp
2015-May-03 10:28N 47°18' W 002°08'0 0.0
2015-May-03 09:04N 47°18' W 002°08'0 0.0
2015-May-02 03:07N 47°18' W 002°08'  
2015-Apr-29 14:15N 39°20' W 009°51'912.7
2015-Apr-29 13:33N 39°12' W 009°51'1212.4
2015-Apr-29 12:33N 38°59' W 009°52'1212.5
2015-Apr-29 11:33N 38°47' W 009°52'1212.5
2015-Apr-29 10:33N 38°35' W 009°49'1212.2
2015-Apr-29 09:33N 38°22' W 009°46'2512.1
2015-Apr-29 07:27N 37°58' W 009°39'1112.1
2015-Apr-29 06:33N 37°47' W 009°36'1212.2
2015-Apr-29 05:33N 37°35' W 009°32'7610.8
2015-Apr-28 22:33N 36°35' W 008°34'15211.7
2015-Apr-28 09:33N 35°59' W 005°31'10 9.7
2015-Apr-28 08:34N 36°01' W 005°19'9 9.0
2015-Apr-28 07:31N 36°03' W 005°08'12011.6
2015-Apr-27 21:14N 36°17' W 002°41'911.2
2015-Apr-27 20:24N 36°17' W 002°29'1211.0
2015-Apr-27 19:20N 36°18' W 002°15'34810.5
2015-Apr-26 10:14N 37°22' E 004°53'5012.1
2015-Apr-26 06:06N 37°28' E 005°56'10712.5
2015-Apr-25 21:33N 37°40' E 008°10'1313.2
2015-Apr-25 20:33N 37°42' E 008°26'1313.1
2015-Apr-25 19:32N 37°43' E 008°43'1512.5
2015-Apr-25 18:20N 37°44' E 009°02'912.1
2015-Apr-25 17:34N 37°43' E 009°14'1212.3
2015-Apr-25 16:33N 37°42' E 009°29'1312.8
2015-Apr-25 15:32N 37°41' E 009°46'1312.6
2015-Apr-25 14:32N 37°39' E 010°01'9712.2
2015-Apr-25 06:33N 37°08' E 011°57'1212.2
2015-Apr-25 05:33N 37°04' E 012°12'5012.5
2015-Apr-25 01:33N 36°50' E 013°11'2512.4
2015-Apr-24 23:30N 36°41' E 013°41'1212.2
2015-Apr-24 22:32N 36°38' E 013°55'1212.7
2015-Apr-24 21:33N 36°34' E 014°10'1312.9
2015-Apr-24 20:33N 36°30' E 014°25'1312.5
2015-Apr-24 19:33N 36°28' E 014°41'142 8.6
2015-Apr-24 03:10N 37°26' E 017°22'812.7
2015-Apr-24 02:33N 37°24' E 017°31'  

Dump ship's entire track history